Time;durP1;ratioP1;P1;durP2;ratioP2;P2;SDS_P1;SDS_P2;PMS_P1;PMS_P2;Temp;Humidity;BMP_temperature;BMP_pressure;BME280_temperature;BME280_humidity;BME280_pressure;Samples;Min_cycle;Max_cycle;Signal;HPM_P1;HPM_P2
2021/09/06 00:01:49;;;;;;;11.38;9.25;;;24.20;65.70;;;;;;6181014;22;87452;-69
2021/09/06 00:04:15;;;;;;;10.80;9.40;;;24.20;65.70;;;;;;6180748;22;88164;-69
2021/09/06 00:06:41;;;;;;;10.00;9.00;;;24.20;65.70;;;;;;6181614;22;86854;-69
2021/09/06 00:09:10;;;;;;;10.27;9.23;;;24.20;65.70;;;;;;6181757;22;87212;-69
2021/09/06 00:11:36;;;;;;;10.35;9.25;;;24.20;65.70;;;;;;6154783;22;90287;-69
2021/09/06 00:14:02;;;;;;;13.05;9.00;;;24.20;65.70;;;;;;6154198;22;90266;-69
2021/09/06 00:16:28;;;;;;;10.60;9.50;;;24.20;65.70;;;;;;6180553;22;89288;-69
2021/09/06 00:18:53;;;;;;;10.20;9.10;;;24.20;65.70;;;;;;6181804;22;87464;-69
2021/09/06 00:21:19;;;;;;;10.60;8.85;;;24.20;65.70;;;;;;6180789;22;87451;-69
2021/09/06 00:23:47;;;;;;;12.20;9.15;;;24.20;65.70;;;;;;6179803;22;88022;-69
2021/09/06 00:26:12;;;;;;;9.60;8.60;;;24.20;65.70;;;;;;6180360;22;87809;-69
2021/09/06 00:28:38;;;;;;;9.60;8.60;;;24.20;65.70;;;;;;6180512;22;87446;-69
2021/09/06 00:31:04;;;;;;;11.43;8.93;;;24.20;65.70;;;;;;6180687;22;86477;-69
2021/09/06 00:33:29;;;;;;;9.43;8.38;;;24.20;65.70;;;;;;6180549;22;88884;-69
2021/09/06 00:35:57;;;;;;;10.25;9.02;;;24.10;65.70;;;;;;6181511;22;87488;-69
2021/09/06 00:38:23;;;;;;;10.10;8.77;;;24.20;65.70;;;;;;6181017;22;88988;-69
2021/09/06 00:40:50;;;;;;;10.10;9.10;;;24.20;65.70;;;;;;6154617;22;90182;-69
2021/09/06 00:43:16;;;;;;;9.82;8.82;;;24.10;65.70;;;;;;6181023;22;87976;-69
2021/09/06 00:45:45;;;;;;;10.30;9.23;;;24.20;65.70;;;;;;6154463;22;90786;-69
2021/09/06 00:48:14;;;;;;;9.50;8.50;;;24.10;65.70;;;;;;6180919;22;87477;-70
2021/09/06 00:50:41;;;;;;;10.18;8.82;;;24.20;65.80;;;;;;6180079;22;87587;-70
2021/09/06 00:53:06;;;;;;;9.32;8.30;;;24.10;65.70;;;;;;6179962;22;87667;-70
2021/09/06 00:55:32;;;;;;;10.48;9.40;;;24.10;65.70;;;;;;6180984;22;88544;-69
2021/09/06 00:57:58;;;;;;;9.60;8.60;;;24.10;65.70;;;;;;6154708;22;87743;-69
2021/09/06 01:00:24;;;;;;;10.63;8.80;;;24.10;66.30;;;;;;6180312;22;87618;-69
2021/09/06 01:02:50;;;;;;;10.30;9.20;;;24.10;65.70;;;;;;6179914;22;88831;-69
2021/09/06 01:05:17;;;;;;;10.30;9.10;;;24.10;65.80;;;;;;6180148;22;87376;-69
2021/09/06 01:07:42;;;;;;;9.80;8.65;;;24.10;65.70;;;;;;6180292;22;87998;-69
2021/09/06 01:10:11;;;;;;;9.35;8.23;;;24.10;65.80;;;;;;6181053;22;87002;-70
2021/09/06 01:12:38;;;;;;;9.88;8.88;;;24.10;65.80;;;;;;6154437;22;92529;-69
2021/09/06 01:15:05;;;;;;;8.90;8.00;;;24.10;65.80;;;;;;6179653;22;88302;-69
2021/09/06 01:17:31;;;;;;;9.10;8.13;;;24.10;65.80;;;;;;6180836;22;87638;-69
2021/09/06 01:19:57;;;;;;;10.02;8.55;;;24.10;65.90;;;;;;6180865;22;86599;-69
2021/09/06 01:22:22;;;;;;;10.07;8.60;;;24.10;65.90;;;;;;6180188;22;88436;-69
2021/09/06 01:24:48;;;;;;;9.93;8.93;;;24.10;65.90;;;;;;6154404;22;90868;-69
2021/09/06 01:27:14;;;;;;;9.35;8.45;;;24.10;65.90;;;;;;6180140;22;88397;-70
2021/09/06 01:29:41;;;;;;;9.80;8.77;;;24.10;65.80;;;;;;6181036;22;87314;-70
2021/09/06 01:32:07;;;;;;;10.82;9.35;;;24.10;65.80;;;;;;6180876;22;88470;-70
2021/09/06 01:34:33;;;;;;;9.13;8.20;;;24.10;65.80;;;;;;6180621;22;89588;-69
2021/09/06 01:36:59;;;;;;;9.45;8.43;;;24.10;65.90;;;;;;6181751;22;87939;-69
2021/09/06 01:39:25;;;;;;;8.73;7.82;;;24.10;65.90;;;;;;6180170;22;87077;-69
2021/09/06 01:41:51;;;;;;;9.43;8.43;;;24.10;65.90;;;;;;6179134;22;88798;-69
2021/09/06 01:44:16;;;;;;;10.13;8.88;;;24.10;65.90;;;;;;6180369;22;87309;-69
2021/09/06 01:46:42;;;;;;;9.45;8.45;;;24.10;65.90;;;;;;6180493;22;87350;-69
2021/09/06 01:49:08;;;;;;;9.15;8.13;;;24.10;65.90;;;;;;6180614;22;87865;-69
2021/09/06 01:51:33;;;;;;;9.57;8.57;;;24.00;65.90;;;;;;6178978;22;88567;-69
2021/09/06 01:53:59;;;;;;;9.52;8.23;;;24.00;65.80;;;;;;6180066;22;88593;-69
2021/09/06 01:56:25;;;;;;;9.13;8.15;;;24.00;65.90;;;;;;6154355;22;87572;-69
2021/09/06 01:58:51;;;;;;;9.48;8.45;;;24.00;65.90;;;;;;6153805;22;89631;-69
2021/09/06 02:01:17;;;;;;;9.23;8.15;;;24.00;65.90;;;;;;6180439;22;87697;-69
2021/09/06 02:03:43;;;;;;;9.70;8.50;;;24.00;65.90;;;;;;6180025;22;87574;-69
2021/09/06 02:06:09;;;;;;;10.18;9.00;;;24.00;65.90;;;;;;6181358;22;87837;-69
2021/09/06 02:08:34;;;;;;;9.65;8.50;;;24.00;65.90;;;;;;6181208;22;87419;-69
2021/09/06 02:11:01;;;;;;;8.68;7.75;;;24.00;66.00;;;;;;6179848;22;89986;-69
2021/09/06 02:13:26;;;;;;;8.73;7.70;;;24.00;66.00;;;;;;6180057;22;87570;-69
2021/09/06 02:15:52;;;;;;;8.90;8.00;;;24.00;66.00;;;;;;6180426;22;88707;-69
2021/09/06 02:18:18;;;;;;;9.65;8.65;;;24.00;66.00;;;;;;6180622;22;87202;-69
2021/09/06 02:20:44;;;;;;;9.15;8.25;;;23.90;65.90;;;;;;6153467;22;91134;-69
2021/09/06 02:23:10;;;;;;;9.38;8.38;;;24.00;66.00;;;;;;6179730;22;88435;-69
2021/09/06 02:25:36;;;;;;;9.25;8.35;;;24.00;66.00;;;;;;6180651;22;87953;-69
2021/09/06 02:28:02;;;;;;;9.32;8.40;;;24.00;66.60;;;;;;6180255;22;87790;-69
2021/09/06 02:30:28;;;;;;;9.00;8.10;;;23.90;65.90;;;;;;6153974;22;90516;-68
2021/09/06 02:32:53;;;;;;;9.02;7.95;;;23.90;65.90;;;;;;6179219;22;88525;-68
2021/09/06 02:35:19;;;;;;;9.40;8.25;;;23.90;66.00;;;;;;6154144;22;87781;-69
2021/09/06 02:37:45;;;;;;;9.82;8.82;;;23.90;66.00;;;;;;6179704;22;87007;-69
2021/09/06 02:40:13;;;;;;;8.95;7.95;;;23.90;66.00;;;;;;6178522;22;89261;-68
2021/09/06 02:42:38;;;;;;;9.85;8.85;;;23.90;66.00;;;;;;6152802;22;91417;-69
2021/09/06 02:45:05;;;;;;;8.98;7.93;;;23.90;66.00;;;;;;6153640;22;87017;-68
2021/09/06 02:47:31;;;;;;;8.65;7.75;;;23.90;66.10;;;;;;6179218;22;88601;-69
2021/09/06 02:49:58;;;;;;;8.27;7.47;;;23.90;66.00;;;;;;6180328;22;88061;-69
2021/09/06 02:52:24;;;;;;;9.00;8.10;;;23.90;66.00;;;;;;6153869;22;91137;-69
2021/09/06 02:54:50;;;;;;;9.38;8.23;;;23.90;66.00;;;;;;6180405;22;87048;-69
2021/09/06 02:57:16;;;;;;;8.77;7.90;;;23.90;66.00;;;;;;6180921;22;86775;-69
2021/09/06 02:59:42;;;;;;;8.95;7.90;;;23.90;66.00;;;;;;6179534;22;87313;-68
2021/09/06 03:02:08;;;;;;;9.30;8.40;;;23.90;66.00;;;;;;6153164;22;89550;-69
2021/09/06 03:04:33;;;;;;;8.90;8.00;;;23.90;66.00;;;;;;6153163;22;87881;-69
2021/09/06 03:06:59;;;;;;;8.93;8.02;;;23.90;66.00;;;;;;6178889;22;88014;-68
2021/09/06 03:09:25;;;;;;;8.52;7.60;;;23.90;66.00;;;;;;6153531;22;91025;-68
2021/09/06 03:11:51;;;;;;;8.20;7.40;;;23.90;66.00;;;;;;6179395;22;87934;-69
2021/09/06 03:14:16;;;;;;;9.05;8.15;;;23.90;66.00;;;;;;6180256;22;87336;-68
2021/09/06 03:16:42;;;;;;;9.73;8.18;;;23.90;66.00;;;;;;6179905;22;87351;-69
2021/09/06 03:19:07;;;;;;;9.52;8.50;;;23.90;66.00;;;;;;6179788;22;87946;-69
2021/09/06 03:21:33;;;;;;;8.07;7.25;;;23.90;66.00;;;;;;6180790;22;87722;-69
2021/09/06 03:23:59;;;;;;;10.65;7.57;;;23.90;66.00;;;;;;6153738;22;87842;-69
2021/09/06 03:26:25;;;;;;;8.50;7.60;;;23.90;66.00;;;;;;6180698;22;86976;-69
2021/09/06 03:28:50;;;;;;;8.57;7.68;;;23.90;66.00;;;;;;6180504;22;90492;-69
2021/09/06 03:31:17;;;;;;;9.25;8.25;;;23.90;66.00;;;;;;6181076;22;89204;-69
2021/09/06 03:33:43;;;;;;;8.23;7.35;;;23.80;66.00;;;;;;6181741;22;87929;-69
2021/09/06 03:36:08;;;;;;;9.35;8.10;;;23.80;66.00;;;;;;6181646;22;86993;-69
2021/09/06 03:38:34;;;;;;;8.85;7.95;;;23.90;66.00;;;;;;6181727;22;87765;-68
2021/09/06 03:41:00;;;;;;;10.10;8.52;;;23.90;66.10;;;;;;6155156;22;91328;-69
2021/09/06 03:43:26;;;;;;;8.23;7.38;;;23.80;66.00;;;;;;6181223;22;87424;-69
2021/09/06 03:45:51;;;;;;;9.65;7.47;;;23.80;66.00;;;;;;6181665;22;86781;-69
2021/09/06 03:48:17;;;;;;;8.65;7.75;;;23.80;66.00;;;;;;6154243;22;91115;-69
2021/09/06 03:50:43;;;;;;;8.45;7.47;;;23.80;66.00;;;;;;6180996;22;87720;-69
2021/09/06 03:53:09;;;;;;;8.07;7.10;;;23.80;66.00;;;;;;6180606;22;88786;-69
2021/09/06 03:55:35;;;;;;;8.77;7.88;;;23.80;66.00;;;;;;6180998;22;87451;-69
2021/09/06 03:58:00;;;;;;;9.50;8.43;;;23.80;66.00;;;;;;6181300;22;88201;-69
2021/09/06 04:00:26;;;;;;;8.32;7.53;;;23.80;66.00;;;;;;6180796;22;87843;-69
2021/09/06 04:02:52;;;;;;;8.20;6.97;;;23.80;66.00;;;;;;6154561;22;87318;-69
2021/09/06 04:05:17;;;;;;;8.52;7.72;;;23.80;66.00;;;;;;6180590;22;87421;-69
2021/09/06 04:07:43;;;;;;;8.75;7.43;;;23.80;66.00;;;;;;6181453;22;88043;-69
2021/09/06 04:10:10;;;;;;;8.27;7.47;;;23.80;66.00;;;;;;6181168;22;87932;-69
2021/09/06 04:12:35;;;;;;;8.50;7.60;;;23.80;66.00;;;;;;6180704;22;86998;-69
2021/09/06 04:15:03;;;;;;;10.98;7.97;;;23.80;66.00;;;;;;6154606;22;89950;-69
2021/09/06 04:17:29;;;;;;;8.35;7.45;;;23.80;66.00;;;;;;6179189;22;88553;-69
2021/09/06 04:19:54;;;;;;;7.88;6.97;;;23.80;66.00;;;;;;6180381;22;88948;-69
2021/09/06 04:22:20;;;;;;;8.23;7.40;;;23.80;66.00;;;;;;6180148;22;87509;-69
2021/09/06 04:24:46;;;;;;;8.02;7.22;;;23.80;66.00;;;;;;6180657;22;86992;-69
2021/09/06 04:27:11;;;;;;;8.30;7.43;;;23.80;66.00;;;;;;6181062;22;88078;-68
2021/09/06 04:29:37;;;;;;;7.60;6.88;;;23.80;66.00;;;;;;6180510;22;88560;-69
2021/09/06 04:32:03;;;;;;;8.30;7.43;;;23.80;66.00;;;;;;6180337;22;87916;-69
2021/09/06 04:34:29;;;;;;;9.00;7.22;;;23.80;66.00;;;;;;6180776;22;86971;-69
2021/09/06 04:36:54;;;;;;;8.57;7.72;;;23.80;66.00;;;;;;6180198;22;87635;-69
2021/09/06 04:39:20;;;;;;;8.57;7.65;;;23.80;66.00;;;;;;6180654;22;88637;-69
2021/09/06 04:41:46;;;;;;;8.32;7.32;;;23.80;66.00;;;;;;6180162;22;88961;-69
2021/09/06 04:44:11;;;;;;;8.25;7.28;;;23.80;65.90;;;;;;6180386;22;86968;-69
2021/09/06 04:46:37;;;;;;;8.15;7.35;;;23.80;65.90;;;;;;6180143;22;87747;-69
2021/09/06 04:49:04;;;;;;;8.35;6.95;;;23.80;65.90;;;;;;6153876;22;89343;-69
2021/09/06 04:54:12;;;;;;;8.43;7.53;;;23.80;66.00;;;;;;6091006;23;88904;-71
2021/09/06 04:56:37;;;;;;;8.48;7.55;;;23.80;66.00;;;;;;6090741;23;88024;-71
2021/09/06 04:59:04;;;;;;;8.82;7.80;;;23.80;66.00;;;;;;6090919;23;87399;-71
2021/09/06 05:01:29;;;;;;;7.82;6.88;;;23.70;65.90;;;;;;6090933;23;87548;-71
2021/09/06 05:03:55;;;;;;;8.60;7.70;;;23.70;65.90;;;;;;6089832;23;87889;-72
2021/09/06 05:06:21;;;;;;;8.18;7.38;;;23.70;65.90;;;;;;6062218;23;90897;-70
2021/09/06 05:08:46;;;;;;;8.05;7.05;;;23.70;65.90;;;;;;6090225;23;87735;-71
2021/09/06 05:11:12;;;;;;;8.30;7.40;;;23.70;65.90;;;;;;6089610;23;87704;-71
2021/09/06 05:13:38;;;;;;;7.93;7.10;;;23.70;65.90;;;;;;6089472;23;87705;-71
2021/09/06 05:16:04;;;;;;;7.45;6.75;;;23.70;65.90;;;;;;6089094;23;88155;-71
2021/09/06 05:18:29;;;;;;;7.82;7.03;;;23.70;65.90;;;;;;6090881;23;87871;-71
2021/09/06 05:20:55;;;;;;;8.50;7.60;;;23.70;65.90;;;;;;6089910;23;87447;-71
2021/09/06 05:23:21;;;;;;;7.93;7.13;;;23.70;66.00;;;;;;6090568;23;87279;-72
2021/09/06 05:25:47;;;;;;;7.90;7.10;;;23.70;66.00;;;;;;6088782;23;88831;-72
2021/09/06 05:28:13;;;;;;;8.38;7.15;;;23.70;65.90;;;;;;6088366;23;88335;-71
2021/09/06 05:30:39;;;;;;;8.30;6.93;;;23.70;66.00;;;;;;6089942;23;88508;-71
2021/09/06 05:33:04;;;;;;;7.80;6.78;;;23.70;66.00;;;;;;6064872;23;89497;-72
2021/09/06 05:35:30;;;;;;;7.72;6.93;;;23.70;66.00;;;;;;6090117;23;88080;-72
2021/09/06 05:37:55;;;;;;;8.38;7.28;;;23.70;66.00;;;;;;6090351;23;87511;-72
2021/09/06 05:40:21;;;;;;;7.60;6.82;;;23.70;66.00;;;;;;6089986;23;86992;-71
2021/09/06 05:42:47;;;;;;;7.78;6.82;;;23.70;66.00;;;;;;6090465;23;87811;-71
2021/09/06 05:45:13;;;;;;;7.68;6.88;;;23.70;66.00;;;;;;6090667;23;88197;-71
2021/09/06 05:47:38;;;;;;;9.95;7.63;;;23.70;65.90;;;;;;6113791;23;90458;-71
2021/09/06 05:50:04;;;;;;;8.15;7.25;;;23.70;66.00;;;;;;6090862;23;87435;-71
2021/09/06 05:52:30;;;;;;;7.93;7.07;;;23.70;66.00;;;;;;6112557;23;90274;-71
2021/09/06 05:54:56;;;;;;;7.65;6.85;;;23.70;66.10;;;;;;6088236;23;89029;-72
2021/09/06 05:57:23;;;;;;;8.15;7.38;;;23.70;66.10;;;;;;6090226;23;89530;-71
2021/09/06 05:59:49;;;;;;;8.55;7.43;;;23.70;66.40;;;;;;6090527;23;87513;-71
2021/09/06 06:02:14;;;;;;;9.35;7.32;;;23.70;66.20;;;;;;6090944;23;87687;-71
2021/09/06 06:04:40;;;;;;;11.43;6.93;;;23.70;65.10;;;;;;6089587;23;87964;-71
2021/09/06 06:07:06;;;;;;;9.55;6.35;;;23.70;64.90;;;;;;6090529;23;87380;-71
2021/09/06 06:09:31;;;;;;;7.70;6.32;;;23.70;65.00;;;;;;6089685;23;87925;-71
2021/09/06 06:11:57;;;;;;;7.75;6.85;;;23.70;65.00;;;;;;6090264;23;86860;-71
2021/09/06 06:14:24;;;;;;;8.60;6.95;;;23.70;65.00;;;;;;6088045;23;87531;-71
2021/09/06 06:16:50;;;;;;;8.55;6.63;;;23.70;65.00;;;;;;6113374;23;89286;-71
2021/09/06 06:19:16;;;;;;;11.63;6.57;;;23.70;65.00;;;;;;6063599;23;88960;-71
2021/09/06 06:21:41;;;;;;;6.55;5.95;;;23.70;65.00;;;;;;6113026;23;90399;-72
2021/09/06 06:24:07;;;;;;;15.38;8.02;;;23.70;64.90;;;;;;6089033;23;87275;-72
2021/09/06 06:26:33;;;;;;;17.48;8.63;;;23.70;65.00;;;;;;6089790;23;87424;-71
2021/09/06 06:28:59;;;;;;;23.55;9.00;;;23.70;65.00;;;;;;6114202;23;87857;-71
2021/09/06 06:31:25;;;;;;;14.57;7.68;;;23.70;64.90;;;;;;6113961;23;88405;-71
2021/09/06 06:33:51;;;;;;;38.15;11.73;;;23.70;64.70;;;;;;6089391;23;87648;-71
2021/09/06 06:36:16;;;;;;;77.15;19.63;;;23.70;62.70;;;;;;6088794;23;87920;-73
2021/09/06 06:38:42;;;;;;;78.13;19.00;;;23.70;61.70;;;;;;6089275;23;87614;-73
2021/09/06 06:41:08;;;;;;;54.10;16.00;;;23.70;60.90;;;;;;6089559;23;87976;-72
2021/09/06 06:43:33;;;;;;;40.20;14.02;;;23.70;60.60;;;;;;6088914;23;88658;-72
2021/09/06 06:45:59;;;;;;;31.05;10.70;;;23.70;60.30;;;;;;6063448;23;91517;-72
2021/09/06 06:48:24;;;;;;;21.75;9.60;;;23.70;60.00;;;;;;6089235;23;87557;-71
2021/09/06 06:50:51;;;;;;;15.82;7.95;;;23.70;59.50;;;;;;6113465;23;88545;-71
2021/09/06 06:53:16;;;;;;;20.50;8.50;;;23.70;59.50;;;;;;6110451;23;91086;-71
2021/09/06 06:55:42;;;;;;;21.42;7.32;;;23.70;59.10;;;;;;6087655;23;87697;-70
2021/09/06 06:58:08;;;;;;;12.57;7.50;;;23.70;59.30;;;;;;6063466;23;87151;-71
2021/09/06 07:00:34;;;;;;;12.63;6.63;;;23.70;59.50;;;;;;6091714;23;86774;-71
2021/09/06 07:02:59;;;;;;;11.50;7.10;;;23.70;59.40;;;;;;6090562;23;87931;-71
2021/09/06 07:05:25;;;;;;;9.82;6.32;;;23.70;59.20;;;;;;6091012;23;88127;-71
2021/09/06 07:07:53;;;;;;;10.93;6.97;;;23.70;59.20;;;;;;6090742;23;88598;-72
2021/09/06 07:10:19;;;;;;;13.65;7.85;;;23.70;59.30;;;;;;6061832;23;88991;-71
2021/09/06 07:12:44;;;;;;;20.75;7.55;;;23.70;59.60;;;;;;6088979;23;88668;-71
2021/09/06 07:15:11;;;;;;;18.63;7.00;;;23.80;59.70;;;;;;6089267;23;88038;-71
2021/09/06 07:17:38;;;;;;;10.98;7.28;;;23.80;59.60;;;;;;6065217;23;87273;-72
2021/09/06 07:20:04;;;;;;;10.65;7.35;;;23.80;59.50;;;;;;6099924;23;87967;-73
2021/09/06 07:22:30;;;;;;;11.50;7.55;;;23.80;59.60;;;;;;6091385;23;87957;-72
2021/09/06 07:24:55;;;;;;;12.45;8.13;;;23.80;60.00;;;;;;6090757;23;88812;-72
2021/09/06 07:27:22;;;;;;;11.07;6.90;;;23.80;60.00;;;;;;6089462;23;87268;-72
2021/09/06 07:29:48;;;;;;;9.48;7.30;;;23.80;60.00;;;;;;6089450;23;87395;-71
2021/09/06 07:32:15;;;;;;;8.85;5.93;;;23.80;60.00;;;;;;6064270;23;92098;-72
2021/09/06 07:34:41;;;;;;;8.20;6.13;;;23.90;60.10;;;;;;6089129;23;88279;-72
2021/09/06 07:37:09;;;;;;;9.90;6.63;;;23.90;60.20;;;;;;6063685;23;87013;-72
2021/09/06 07:39:35;;;;;;;14.35;6.50;;;23.80;60.30;;;;;;6090011;23;87577;-72
2021/09/06 07:42:02;;;;;;;9.35;5.90;;;23.90;60.40;;;;;;6063606;23;89472;-72
2021/09/06 07:44:29;;;;;;;12.63;5.50;;;23.90;60.60;;;;;;6065544;23;89354;-73
2021/09/06 07:46:55;;;;;;;9.68;6.22;;;23.90;60.60;;;;;;6091256;23;87081;-72
2021/09/06 07:49:21;;;;;;;7.03;5.20;;;23.90;60.70;;;;;;6091588;23;86909;-72
2021/09/06 07:51:52;;;;;;;8.65;5.10;;;23.90;60.80;;;;;;6091377;23;87620;-71
2021/09/06 07:54:22;;;;;;;9.02;5.80;;;23.90;60.90;;;;;;6091104;23;87643;-71
2021/09/06 07:56:49;;;;;;;12.23;5.50;;;23.90;60.90;;;;;;6065727;23;88019;-72
2021/09/06 07:59:15;;;;;;;8.35;5.00;;;24.00;61.10;;;;;;6066113;23;88020;-72
2021/09/06 08:01:42;;;;;;;7.40;4.97;;;23.90;61.10;;;;;;6089592;23;88082;-72
2021/09/06 08:04:07;;;;;;;8.38;5.22;;;24.00;61.10;;;;;;6089947;23;87416;-71
2021/09/06 08:06:35;;;;;;;8.02;5.38;;;24.00;61.20;;;;;;6091163;23;87887;-72
2021/09/06 08:09:01;;;;;;;6.90;5.35;;;24.00;61.30;;;;;;6065489;23;89983;-71
2021/09/06 08:11:26;;;;;;;9.05;5.22;;;24.00;61.30;;;;;;6089916;23;88258;-71
2021/09/06 08:13:52;;;;;;;7.70;5.40;;;24.00;61.30;;;;;;6090654;23;87232;-71
2021/09/06 08:16:18;;;;;;;7.70;5.65;;;24.00;61.40;;;;;;6065723;23;87155;-71
2021/09/06 08:18:43;;;;;;;8.35;5.32;;;24.00;61.40;;;;;;6090753;23;87679;-71
2021/09/06 08:21:09;;;;;;;7.38;5.47;;;23.90;61.40;;;;;;6090123;23;89044;-71
2021/09/06 08:23:35;;;;;;;8.15;5.63;;;24.00;61.50;;;;;;6091041;23;88175;-71
2021/09/06 08:26:01;;;;;;;11.55;5.40;;;24.10;61.60;;;;;;6091719;23;87597;-71
2021/09/06 08:28:27;;;;;;;8.55;5.68;;;24.10;61.70;;;;;;6091134;23;87296;-71
2021/09/06 08:30:53;;;;;;;8.25;5.70;;;24.10;61.70;;;;;;6091086;23;88245;-72
2021/09/06 08:33:19;;;;;;;9.23;5.80;;;24.10;61.70;;;;;;6091572;23;88266;-71
2021/09/06 08:35:46;;;;;;;9.43;5.70;;;24.10;61.70;;;;;;6066107;23;87416;-71
2021/09/06 08:38:12;;;;;;;9.40;5.25;;;24.10;61.80;;;;;;6090846;23;89432;-72
2021/09/06 08:40:38;;;;;;;7.68;5.75;;;24.10;61.80;;;;;;6065625;23;89594;-71
2021/09/06 08:43:06;;;;;;;12.07;6.15;;;24.10;61.90;;;;;;6090179;23;90957;-71
2021/09/06 08:45:35;;;;;;;8.27;6.28;;;24.10;61.90;;;;;;6089995;23;88034;-71
2021/09/06 08:48:02;;;;;;;11.13;6.47;;;24.10;61.90;;;;;;6065286;23;90081;-71
2021/09/06 08:50:28;;;;;;;8.02;6.13;;;24.10;62.50;;;;;;6089706;23;90078;-71
2021/09/06 08:52:57;;;;;;;7.03;6.07;;;24.10;62.00;;;;;;6090068;23;88755;-71
2021/09/06 08:55:22;;;;;;;8.05;5.68;;;24.10;62.10;;;;;;6065457;23;87772;-71
2021/09/06 08:57:48;;;;;;;8.65;6.60;;;24.10;62.20;;;;;;6091435;23;87011;-71
2021/09/06 09:00:14;;;;;;;8.98;6.22;;;24.10;62.10;;;;;;6090866;23;87269;-71
2021/09/06 09:02:41;;;;;;;10.35;6.95;;;24.10;62.20;;;;;;6065270;23;89923;-71
2021/09/06 09:05:10;;;;;;;10.20;6.97;;;24.10;62.20;;;;;;6064462;23;87648;-71
2021/09/06 09:07:37;;;;;;;8.07;6.53;;;24.10;62.30;;;;;;6065106;23;88521;-71
2021/09/06 09:10:07;;;;;;;9.13;6.82;;;24.10;62.30;;;;;;6064487;23;90078;-70
2021/09/06 09:12:32;;;;;;;9.32;6.53;;;24.10;62.40;;;;;;6064984;23;91972;-71
2021/09/06 09:15:00;;;;;;;10.40;7.05;;;24.20;62.50;;;;;;6091470;23;87663;-71
2021/09/06 09:17:27;;;;;;;7.85;6.60;;;24.10;62.50;;;;;;6091143;23;88047;-71
2021/09/06 09:19:58;;;;;;;10.13;6.72;;;24.10;62.50;;;;;;6065085;23;89667;-71
2021/09/06 09:22:33;;;;;;;8.55;7.05;;;24.20;62.60;;;;;;6063772;23;90983;-71
2021/09/06 09:25:05;;;;;;;9.48;7.13;;;24.20;62.60;;;;;;6065285;23;87933;-71
2021/09/06 09:27:36;;;;;;;9.77;7.35;;;24.10;62.60;;;;;;6089559;23;88934;-71
2021/09/06 09:30:04;;;;;;;9.90;7.63;;;24.10;62.60;;;;;;6064661;23;90603;-71
2021/09/06 09:32:35;;;;;;;11.07;7.13;;;24.10;62.70;;;;;;6089997;23;87869;-70
2021/09/06 09:35:07;;;;;;;9.10;7.25;;;24.10;62.70;;;;;;6089387;23;88386;-71
2021/09/06 09:37:34;;;;;;;10.52;7.78;;;24.20;62.80;;;;;;6064449;23;87948;-71
2021/09/06 09:40:04;;;;;;;10.18;7.07;;;24.20;62.80;;;;;;6090085;23;87977;-71
2021/09/06 09:42:30;;;;;;;12.32;8.23;;;24.20;62.90;;;;;;6090020;23;89947;-71
2021/09/06 09:44:59;;;;;;;11.48;7.50;;;24.10;62.90;;;;;;6089204;23;87691;-71
2021/09/06 09:47:26;;;;;;;9.57;7.97;;;24.20;62.90;;;;;;6089741;23;87527;-71
2021/09/06 09:49:54;;;;;;;13.65;10.02;;;24.20;63.00;;;;;;6089222;23;89022;-71
2021/09/06 09:52:22;;;;;;;14.63;11.00;;;24.20;63.20;;;;;;6064194;23;89223;-71
2021/09/06 09:54:49;;;;;;;22.45;13.95;;;24.20;63.20;;;;;;6064036;23;87478;-71
2021/09/06 09:57:16;;;;;;;19.63;13.60;;;24.20;63.30;;;;;;6087789;23;87186;-71
2021/09/06 09:59:42;;;;;;;22.98;15.88;;;24.20;63.50;;;;;;6062430;23;90955;-71
2021/09/06 10:02:22;;;;;;;27.85;18.83;;;24.20;63.60;;;;;;6064007;23;90024;-71
2021/09/06 10:04:51;;;;;;;29.77;19.80;;;24.20;63.60;;;;;;6064082;23;87701;-71
2021/09/06 10:07:23;;;;;;;31.77;20.15;;;24.20;63.40;;;;;;6088306;23;89524;-71
2021/09/06 10:09:49;;;;;;;32.85;21.10;;;24.20;63.30;;;;;;6088798;23;88177;-71
2021/09/06 10:12:20;;;;;;;28.98;19.70;;;24.20;63.30;;;;;;6089261;23;87769;-71
2021/09/06 10:14:54;;;;;;;33.90;20.00;;;24.20;63.50;;;;;;6063773;23;87295;-71
2021/09/06 10:17:41;;;;;;;26.85;19.45;;;24.20;63.60;;;;;;6064412;23;89644;-71
2021/09/06 10:20:10;;;;;;;26.05;17.88;;;24.20;63.90;;;;;;6064044;23;89221;-70
2021/09/06 10:22:36;;;;;;;25.05;17.50;;;24.10;63.90;;;;;;6088039;23;87985;-71
2021/09/06 10:25:06;;;;;;;23.52;17.42;;;24.20;63.80;;;;;;6088496;23;88780;-71
2021/09/06 10:27:38;;;;;;;27.05;17.55;;;24.20;63.80;;;;;;6063023;23;89310;-71
2021/09/06 10:30:10;;;;;;;23.95;17.55;;;24.20;64.10;;;;;;6088622;23;88054;-70
2021/09/06 10:32:39;;;;;;;36.97;22.17;;;24.20;64.00;;;;;;6063241;23;92692;-71
2021/09/06 10:35:08;;;;;;;29.90;19.95;;;24.20;64.20;;;;;;6065450;23;87535;-71
2021/09/06 10:37:38;;;;;;;29.23;20.90;;;24.20;64.70;;;;;;6065432;23;89312;-70
2021/09/06 10:40:07;;;;;;;33.40;21.67;;;24.20;64.90;;;;;;6064893;23;88458;-70
2021/09/06 10:42:34;;;;;;;35.20;21.70;;;24.20;64.60;;;;;;6089397;23;89984;-71
2021/09/06 10:45:02;;;;;;;34.45;22.15;;;24.20;64.50;;;;;;6065114;23;87429;-71
2021/09/06 10:47:36;;;;;;;33.85;22.08;;;24.20;65.20;;;;;;6061878;23;89841;-71
2021/09/06 10:50:18;;;;;;;33.15;21.05;;;24.20;64.70;;;;;;6088048;23;89138;-71
2021/09/06 10:52:49;;;;;;;39.30;22.10;;;24.20;64.90;;;;;;6061672;23;92911;-71
2021/09/06 10:55:17;;;;;;;35.05;22.00;;;24.20;65.10;;;;;;6064443;23;87312;-71
2021/09/06 10:57:44;;;;;;;31.35;20.52;;;24.20;65.20;;;;;;6090128;23;88135;-72
2021/09/06 11:00:22;;;;;;;32.60;20.45;;;24.20;65.20;;;;;;6063760;23;90139;-71
2021/09/06 11:02:50;;;;;;;31.00;21.00;;;24.20;65.30;;;;;;6063560;23;89402;-71
2021/09/06 11:05:23;;;;;;;32.13;21.20;;;24.20;65.60;;;;;;6063546;23;87562;-71
2021/09/06 11:07:51;;;;;;;33.03;21.75;;;24.20;65.50;;;;;;6063072;23;88238;-71
2021/09/06 11:10:22;;;;;;;32.22;20.90;;;24.20;65.30;;;;;;6064243;23;88535;-71
2021/09/06 11:13:06;;;;;;;33.25;21.63;;;24.20;65.10;;;;;;6064126;23;88413;-71
2021/09/06 11:15:33;;;;;;;32.05;20.40;;;24.20;65.40;;;;;;6063869;23;88220;-71
2021/09/06 11:18:09;;;;;;;30.25;20.08;;;24.20;65.30;;;;;;6063952;23;89838;-71
2021/09/06 11:20:37;;;;;;;182.70;50.33;;;24.20;65.30;;;;;;6090049;23;88361;-71
2021/09/06 11:23:05;;;;;;;62.45;27.63;;;24.20;65.50;;;;;;6089047;23;90978;-71
2021/09/06 11:25:34;;;;;;;45.70;24.20;;;24.20;65.20;;;;;;6064644;23;88995;-73
2021/09/06 11:28:09;;;;;;;42.67;22.52;;;24.20;64.90;;;;;;6063859;23;88153;-72
2021/09/06 11:30:37;;;;;;;32.85;20.52;;;24.20;64.60;;;;;;6089646;23;88279;-73
2021/09/06 11:33:05;;;;;;;38.65;22.20;;;24.20;64.40;;;;;;6065181;23;89493;-73
2021/09/06 11:35:36;;;;;;;41.45;21.00;;;24.20;64.40;;;;;;6064780;23;87854;-72
2021/09/06 11:38:02;;;;;;;33.30;21.38;;;24.20;64.50;;;;;;6090787;23;87707;-72
2021/09/06 11:40:29;;;;;;;32.13;20.10;;;24.20;64.70;;;;;;6064016;23;91118;-73
2021/09/06 11:42:57;;;;;;;31.77;20.95;;;24.20;64.60;;;;;;6064566;23;90234;-73
2021/09/06 11:48:19;;;;;;;29.50;19.52;;;24.20;65.00;;;;;;6117968;23;87841;-70
2021/09/06 11:50:44;;;;;;;28.55;18.63;;;24.30;64.90;;;;;;6119981;23;87981;-70
2021/09/06 11:53:13;;;;;;;27.58;17.80;;;24.20;65.00;;;;;;6119601;23;87860;-69
2021/09/06 11:56:12;;;;;;;30.38;18.48;;;24.20;65.10;;;;;;6093442;23;87417;-71
2021/09/06 11:58:45;;;;;;;29.63;17.13;;;24.20;65.20;;;;;;6096527;23;87114;-69
2021/09/06 12:01:14;;;;;;;25.80;17.20;;;24.30;65.00;;;;;;6093541;23;91409;-70
2021/09/06 12:03:41;;;;;;;27.92;17.67;;;24.30;65.00;;;;;;6119150;23;88298;-70
2021/09/06 12:06:10;;;;;;;22.70;16.73;;;24.30;65.30;;;;;;6118012;23;87974;-70
2021/09/06 12:08:38;;;;;;;26.95;17.98;;;24.30;65.30;;;;;;6119582;23;87561;-70
2021/09/06 12:11:05;;;;;;;29.85;19.02;;;24.30;65.30;;;;;;6118471;23;87699;-70
2021/09/06 12:13:34;;;;;;;26.85;18.67;;;24.30;64.20;;;;;;6119078;23;87916;-70
2021/09/06 12:16:03;;;;;;;24.02;17.38;;;24.30;64.00;;;;;;6120150;23;88010;-70
2021/09/06 12:18:40;;;;;;;27.17;18.40;;;24.30;63.80;;;;;;6120203;23;87899;-70
2021/09/06 12:21:10;;;;;;;24.25;17.60;;;24.30;63.80;;;;;;6119888;23;87705;-71
2021/09/06 12:23:38;;;;;;;24.02;17.00;;;24.30;63.30;;;;;;6120164;23;86889;-71
2021/09/06 12:26:05;;;;;;;25.77;18.45;;;24.30;63.30;;;;;;6119812;23;87122;-70
2021/09/06 12:28:32;;;;;;;22.45;17.02;;;24.30;63.60;;;;;;6093724;23;88745;-70
2021/09/06 12:31:02;;;;;;;23.95;17.60;;;24.30;63.80;;;;;;6119357;23;89119;-70
2021/09/06 12:33:28;;;;;;;22.65;15.82;;;24.30;64.10;;;;;;6118710;23;87423;-70
2021/09/06 12:35:55;;;;;;;21.85;16.23;;;24.30;64.20;;;;;;6119124;23;87908;-70
2021/09/06 12:38:21;;;;;;;21.85;15.88;;;24.30;64.30;;;;;;6117778;23;87699;-70
2021/09/06 12:40:46;;;;;;;20.75;15.48;;;24.30;64.70;;;;;;6093664;23;89979;-70
2021/09/06 12:43:12;;;;;;;22.15;16.30;;;24.30;64.80;;;;;;6119213;23;87884;-70
2021/09/06 12:45:38;;;;;;;23.80;16.05;;;24.30;64.50;;;;;;6120084;23;87723;-70